sensor_id;sensor_type;location;lat;lon;timestamp;P1;durP1;ratioP1;P2;durP2;ratioP2
3975;SDS011;2002;48.812;9.180;2022-08-19T00:01:50;3.57;;;3.27;;
3975;SDS011;2002;48.812;9.180;2022-08-19T00:04:17;3.20;;;3.00;;
3975;SDS011;2002;48.812;9.180;2022-08-19T00:06:45;3.60;;;3.40;;
3975;SDS011;2002;48.812;9.180;2022-08-19T00:09:13;3.63;;;3.33;;
3975;SDS011;2002;48.812;9.180;2022-08-19T00:11:41;3.53;;;3.33;;
3975;SDS011;2002;48.812;9.180;2022-08-19T00:14:08;3.40;;;3.20;;
3975;SDS011;2002;48.812;9.180;2022-08-19T00:16:36;3.97;;;3.70;;
3975;SDS011;2002;48.812;9.180;2022-08-19T00:19:03;3.70;;;3.50;;
3975;SDS011;2002;48.812;9.180;2022-08-19T00:21:29;2.90;;;2.70;;
3975;SDS011;2002;48.812;9.180;2022-08-19T00:23:55;4.10;;;3.80;;
3975;SDS011;2002;48.812;9.180;2022-08-19T00:26:25;3.87;;;3.57;;
3975;SDS011;2002;48.812;9.180;2022-08-19T00:28:52;3.17;;;2.90;;
3975;SDS011;2002;48.812;9.180;2022-08-19T00:31:17;3.30;;;3.10;;
3975;SDS011;2002;48.812;9.180;2022-08-19T00:33:43;3.53;;;3.23;;
3975;SDS011;2002;48.812;9.180;2022-08-19T00:36:09;3.30;;;3.10;;
3975;SDS011;2002;48.812;9.180;2022-08-19T00:38:35;3.60;;;3.37;;
3975;SDS011;2002;48.812;9.180;2022-08-19T00:41:03;3.77;;;3.50;;
3975;SDS011;2002;48.812;9.180;2022-08-19T00:43:30;3.33;;;3.13;;
3975;SDS011;2002;48.812;9.180;2022-08-19T00:45:56;3.20;;;3.00;;
3975;SDS011;2002;48.812;9.180;2022-08-19T00:48:21;3.50;;;3.30;;
3975;SDS011;2002;48.812;9.180;2022-08-19T00:50:48;3.33;;;3.13;;
3975;SDS011;2002;48.812;9.180;2022-08-19T00:53:19;3.60;;;3.40;;
3975;SDS011;2002;48.812;9.180;2022-08-19T00:55:48;3.20;;;3.00;;
3975;SDS011;2002;48.812;9.180;2022-08-19T00:58:20;3.63;;;3.37;;
3975;SDS011;2002;48.812;9.180;2022-08-19T01:00:49;3.23;;;3.03;;
3975;SDS011;2002;48.812;9.180;2022-08-19T01:03:16;3.20;;;3.00;;
3975;SDS011;2002;48.812;9.180;2022-08-19T01:05:44;2.90;;;2.70;;
3975;SDS011;2002;48.812;9.180;2022-08-19T01:08:12;3.60;;;3.40;;
3975;SDS011;2002;48.812;9.180;2022-08-19T01:10:41;3.53;;;3.30;;
3975;SDS011;2002;48.812;9.180;2022-08-19T01:13:17;3.77;;;3.47;;
3975;SDS011;2002;48.812;9.180;2022-08-19T01:15:48;3.90;;;3.60;;
3975;SDS011;2002;48.812;9.180;2022-08-19T01:18:18;4.10;;;3.80;;
3975;SDS011;2002;48.812;9.180;2022-08-19T01:20:45;3.80;;;3.60;;
3975;SDS011;2002;48.812;9.180;2022-08-19T01:23:11;4.00;;;3.70;;
3975;SDS011;2002;48.812;9.180;2022-08-19T01:25:42;3.97;;;3.67;;
3975;SDS011;2002;48.812;9.180;2022-08-19T01:28:21;3.97;;;3.67;;
3975;SDS011;2002;48.812;9.180;2022-08-19T01:40:54;3.70;;;3.40;;
3975;SDS011;2002;48.812;9.180;2022-08-19T01:43:20;4.07;;;3.77;;
3975;SDS011;2002;48.812;9.180;2022-08-19T01:45:45;3.87;;;3.57;;
3975;SDS011;2002;48.812;9.180;2022-08-19T01:48:11;3.30;;;3.07;;
3975;SDS011;2002;48.812;9.180;2022-08-19T01:50:38;3.80;;;3.60;;
3975;SDS011;2002;48.812;9.180;2022-08-19T01:53:05;3.83;;;3.53;;
3975;SDS011;2002;48.812;9.180;2022-08-19T01:55:39;3.67;;;3.37;;
3975;SDS011;2002;48.812;9.180;2022-08-19T01:58:06;3.57;;;3.27;;
3975;SDS011;2002;48.812;9.180;2022-08-19T02:00:36;3.70;;;3.40;;
3975;SDS011;2002;48.812;9.180;2022-08-19T02:03:02;4.40;;;4.10;;
3975;SDS011;2002;48.812;9.180;2022-08-19T02:05:28;3.27;;;3.07;;
3975;SDS011;2002;48.812;9.180;2022-08-19T02:07:54;4.00;;;3.70;;
3975;SDS011;2002;48.812;9.180;2022-08-19T02:10:21;3.90;;;3.60;;
3975;SDS011;2002;48.812;9.180;2022-08-19T02:12:47;3.50;;;3.30;;
3975;SDS011;2002;48.812;9.180;2022-08-19T02:15:14;3.67;;;3.37;;
3975;SDS011;2002;48.812;9.180;2022-08-19T02:17:41;3.53;;;3.23;;
3975;SDS011;2002;48.812;9.180;2022-08-19T02:20:07;3.63;;;3.33;;
3975;SDS011;2002;48.812;9.180;2022-08-19T02:22:33;3.33;;;3.13;;
3975;SDS011;2002;48.812;9.180;2022-08-19T02:25:00;3.90;;;3.60;;
3975;SDS011;2002;48.812;9.180;2022-08-19T02:27:26;3.20;;;3.00;;
3975;SDS011;2002;48.812;9.180;2022-08-19T02:29:51;3.83;;;3.53;;
3975;SDS011;2002;48.812;9.180;2022-08-19T02:32:18;3.50;;;3.30;;
3975;SDS011;2002;48.812;9.180;2022-08-19T02:34:44;4.40;;;4.10;;
3975;SDS011;2002;48.812;9.180;2022-08-19T02:37:11;3.97;;;3.67;;
3975;SDS011;2002;48.812;9.180;2022-08-19T02:39:56;3.57;;;3.30;;
3975;SDS011;2002;48.812;9.180;2022-08-19T02:42:22;4.20;;;3.90;;
3975;SDS011;2002;48.812;9.180;2022-08-19T02:44:48;4.30;;;4.00;;
3975;SDS011;2002;48.812;9.180;2022-08-19T02:47:14;3.63;;;3.43;;
3975;SDS011;2002;48.812;9.180;2022-08-19T02:49:40;3.50;;;3.30;;
3975;SDS011;2002;48.812;9.180;2022-08-19T02:52:06;4.40;;;4.10;;
3975;SDS011;2002;48.812;9.180;2022-08-19T02:54:31;4.03;;;3.73;;
3975;SDS011;2002;48.812;9.180;2022-08-19T02:56:57;3.90;;;3.60;;
3975;SDS011;2002;48.812;9.180;2022-08-19T02:59:23;4.03;;;3.73;;
3975;SDS011;2002;48.812;9.180;2022-08-19T03:01:49;4.63;;;4.23;;
3975;SDS011;2002;48.812;9.180;2022-08-19T03:04:15;4.30;;;4.00;;
3975;SDS011;2002;48.812;9.180;2022-08-19T03:06:42;4.10;;;3.80;;
3975;SDS011;2002;48.812;9.180;2022-08-19T03:09:09;4.40;;;4.10;;
3975;SDS011;2002;48.812;9.180;2022-08-19T03:11:35;4.03;;;3.73;;
3975;SDS011;2002;48.812;9.180;2022-08-19T03:14:02;3.83;;;3.53;;
3975;SDS011;2002;48.812;9.180;2022-08-19T03:16:30;3.70;;;3.50;;
3975;SDS011;2002;48.812;9.180;2022-08-19T03:18:57;4.13;;;3.80;;
3975;SDS011;2002;48.812;9.180;2022-08-19T03:21:28;4.17;;;3.87;;
3975;SDS011;2002;48.812;9.180;2022-08-19T03:23:56;4.30;;;4.00;;
3975;SDS011;2002;48.812;9.180;2022-08-19T03:26:23;4.60;;;4.30;;
3975;SDS011;2002;48.812;9.180;2022-08-19T03:28:49;4.37;;;4.07;;
3975;SDS011;2002;48.812;9.180;2022-08-19T03:31:16;4.40;;;4.00;;
3975;SDS011;2002;48.812;9.180;2022-08-19T03:33:43;4.70;;;4.40;;
3975;SDS011;2002;48.812;9.180;2022-08-19T03:36:11;4.20;;;3.90;;
3975;SDS011;2002;48.812;9.180;2022-08-19T03:38:46;3.90;;;3.60;;
3975;SDS011;2002;48.812;9.180;2022-08-19T03:41:17;4.40;;;4.10;;
3975;SDS011;2002;48.812;9.180;2022-08-19T03:43:45;3.70;;;3.40;;
3975;SDS011;2002;48.812;9.180;2022-08-19T03:46:16;4.30;;;4.00;;
3975;SDS011;2002;48.812;9.180;2022-08-19T03:48:46;3.83;;;3.53;;
3975;SDS011;2002;48.812;9.180;2022-08-19T03:51:20;4.53;;;4.20;;
3975;SDS011;2002;48.812;9.180;2022-08-19T03:53:51;4.13;;;3.80;;
3975;SDS011;2002;48.812;9.180;2022-08-19T03:56:18;4.70;;;4.30;;
3975;SDS011;2002;48.812;9.180;2022-08-19T03:58:45;4.30;;;4.00;;
3975;SDS011;2002;48.812;9.180;2022-08-19T04:01:12;4.47;;;4.07;;
3975;SDS011;2002;48.812;9.180;2022-08-19T04:03:39;4.27;;;3.97;;
3975;SDS011;2002;48.812;9.180;2022-08-19T04:06:09;4.57;;;4.23;;
3975;SDS011;2002;48.812;9.180;2022-08-19T04:08:35;4.60;;;4.30;;
3975;SDS011;2002;48.812;9.180;2022-08-19T04:11:01;3.90;;;3.60;;
3975;SDS011;2002;48.812;9.180;2022-08-19T04:13:31;4.70;;;4.30;;
3975;SDS011;2002;48.812;9.180;2022-08-19T04:15:56;4.17;;;3.87;;
3975;SDS011;2002;48.812;9.180;2022-08-19T04:18:22;4.80;;;4.40;;
3975;SDS011;2002;48.812;9.180;2022-08-19T04:20:47;4.30;;;4.00;;
3975;SDS011;2002;48.812;9.180;2022-08-19T04:23:14;4.30;;;4.00;;
3975;SDS011;2002;48.812;9.180;2022-08-19T04:25:41;4.80;;;4.40;;
3975;SDS011;2002;48.812;9.180;2022-08-19T04:28:09;5.53;;;5.03;;
3975;SDS011;2002;48.812;9.180;2022-08-19T04:30:38;3.90;;;3.60;;
3975;SDS011;2002;48.812;9.180;2022-08-19T04:33:05;4.90;;;4.50;;
3975;SDS011;2002;48.812;9.180;2022-08-19T04:35:34;4.57;;;4.17;;
3975;SDS011;2002;48.812;9.180;2022-08-19T04:38:05;3.97;;;3.67;;
3975;SDS011;2002;48.812;9.180;2022-08-19T04:40:31;5.60;;;5.17;;
3975;SDS011;2002;48.812;9.180;2022-08-19T04:43:16;4.80;;;4.40;;
3975;SDS011;2002;48.812;9.180;2022-08-19T04:45:42;4.83;;;4.43;;
3975;SDS011;2002;48.812;9.180;2022-08-19T04:48:09;4.37;;;4.07;;
3975;SDS011;2002;48.812;9.180;2022-08-19T04:50:35;4.50;;;4.20;;
3975;SDS011;2002;48.812;9.180;2022-08-19T04:53:01;4.50;;;4.20;;
3975;SDS011;2002;48.812;9.180;2022-08-19T04:55:27;4.33;;;4.03;;
3975;SDS011;2002;48.812;9.180;2022-08-19T04:57:53;4.67;;;4.27;;
3975;SDS011;2002;48.812;9.180;2022-08-19T05:00:19;5.20;;;4.80;;
3975;SDS011;2002;48.812;9.180;2022-08-19T05:02:45;4.63;;;4.30;;
3975;SDS011;2002;48.812;9.180;2022-08-19T05:05:10;4.30;;;4.00;;
3975;SDS011;2002;48.812;9.180;2022-08-19T05:07:36;4.93;;;4.53;;
3975;SDS011;2002;48.812;9.180;2022-08-19T05:10:03;4.90;;;4.50;;
3975;SDS011;2002;48.812;9.180;2022-08-19T05:12:30;4.80;;;4.40;;
3975;SDS011;2002;48.812;9.180;2022-08-19T05:14:56;5.07;;;4.63;;
3975;SDS011;2002;48.812;9.180;2022-08-19T05:17:23;4.60;;;4.20;;
3975;SDS011;2002;48.812;9.180;2022-08-19T05:19:52;4.93;;;4.43;;
3975;SDS011;2002;48.812;9.180;2022-08-19T05:22:37;4.70;;;4.30;;
3975;SDS011;2002;48.812;9.180;2022-08-19T05:25:07;4.87;;;4.47;;
3975;SDS011;2002;48.812;9.180;2022-08-19T05:27:34;4.57;;;4.27;;
3975;SDS011;2002;48.812;9.180;2022-08-19T05:30:00;4.67;;;4.27;;
3975;SDS011;2002;48.812;9.180;2022-08-19T05:32:26;4.80;;;4.40;;
3975;SDS011;2002;48.812;9.180;2022-08-19T05:34:52;4.50;;;4.20;;
3975;SDS011;2002;48.812;9.180;2022-08-19T05:37:17;4.60;;;4.30;;
3975;SDS011;2002;48.812;9.180;2022-08-19T05:39:43;4.97;;;4.57;;
3975;SDS011;2002;48.812;9.180;2022-08-19T05:42:09;5.07;;;4.67;;
3975;SDS011;2002;48.812;9.180;2022-08-19T05:44:37;4.97;;;4.57;;
3975;SDS011;2002;48.812;9.180;2022-08-19T05:47:08;4.90;;;4.50;;
3975;SDS011;2002;48.812;9.180;2022-08-19T05:49:33;5.00;;;4.60;;
3975;SDS011;2002;48.812;9.180;2022-08-19T05:52:01;5.03;;;4.63;;
3975;SDS011;2002;48.812;9.180;2022-08-19T05:54:29;5.20;;;4.80;;
3975;SDS011;2002;48.812;9.180;2022-08-19T05:56:55;4.93;;;4.50;;
3975;SDS011;2002;48.812;9.180;2022-08-19T05:59:21;4.73;;;4.43;;
3975;SDS011;2002;48.812;9.180;2022-08-19T06:01:47;5.03;;;4.63;;
3975;SDS011;2002;48.812;9.180;2022-08-19T06:04:19;5.00;;;4.50;;
3975;SDS011;2002;48.812;9.180;2022-08-19T06:06:47;4.83;;;4.43;;
3975;SDS011;2002;48.812;9.180;2022-08-19T06:09:14;5.57;;;5.07;;
3975;SDS011;2002;48.812;9.180;2022-08-19T06:11:41;5.50;;;5.10;;
3975;SDS011;2002;48.812;9.180;2022-08-19T06:14:10;4.80;;;4.40;;
3975;SDS011;2002;48.812;9.180;2022-08-19T06:16:39;4.67;;;4.27;;
3975;SDS011;2002;48.812;9.180;2022-08-19T06:19:07;5.07;;;4.67;;
3975;SDS011;2002;48.812;9.180;2022-08-19T06:21:36;4.90;;;4.50;;
3975;SDS011;2002;48.812;9.180;2022-08-19T06:24:04;4.87;;;4.50;;
3975;SDS011;2002;48.812;9.180;2022-08-19T06:26:31;5.57;;;5.07;;
3975;SDS011;2002;48.812;9.180;2022-08-19T06:28:57;5.33;;;4.93;;
3975;SDS011;2002;48.812;9.180;2022-08-19T06:31:25;5.80;;;5.30;;
3975;SDS011;2002;48.812;9.180;2022-08-19T06:33:52;5.13;;;4.73;;
3975;SDS011;2002;48.812;9.180;2022-08-19T06:36:29;5.07;;;4.67;;
3975;SDS011;2002;48.812;9.180;2022-08-19T06:39:16;5.63;;;5.23;;
3975;SDS011;2002;48.812;9.180;2022-08-19T06:41:46;5.57;;;5.10;;
3975;SDS011;2002;48.812;9.180;2022-08-19T06:44:13;5.30;;;4.90;;
3975;SDS011;2002;48.812;9.180;2022-08-19T06:46:40;5.30;;;4.90;;
3975;SDS011;2002;48.812;9.180;2022-08-19T06:49:06;5.40;;;5.00;;
3975;SDS011;2002;48.812;9.180;2022-08-19T06:51:36;4.93;;;4.53;;
3975;SDS011;2002;48.812;9.180;2022-08-19T06:54:01;5.70;;;5.27;;
3975;SDS011;2002;48.812;9.180;2022-08-19T06:56:28;5.63;;;5.23;;
3975;SDS011;2002;48.812;9.180;2022-08-19T06:59:02;4.90;;;4.50;;
3975;SDS011;2002;48.812;9.180;2022-08-19T07:01:29;5.20;;;4.80;;
3975;SDS011;2002;48.812;9.180;2022-08-19T07:03:59;5.70;;;5.30;;
3975;SDS011;2002;48.812;9.180;2022-08-19T07:06:26;5.40;;;5.00;;
3975;SDS011;2002;48.812;9.180;2022-08-19T07:08:51;6.67;;;6.17;;
3975;SDS011;2002;48.812;9.180;2022-08-19T07:11:17;5.97;;;5.40;;
3975;SDS011;2002;48.812;9.180;2022-08-19T07:13:44;5.17;;;4.77;;
3975;SDS011;2002;48.812;9.180;2022-08-19T07:16:12;5.60;;;5.10;;
3975;SDS011;2002;48.812;9.180;2022-08-19T07:18:39;5.83;;;5.40;;
3975;SDS011;2002;48.812;9.180;2022-08-19T07:21:06;5.27;;;4.87;;
3975;SDS011;2002;48.812;9.180;2022-08-19T07:23:36;5.60;;;5.20;;
3975;SDS011;2002;48.812;9.180;2022-08-19T07:26:11;5.60;;;5.20;;
3975;SDS011;2002;48.812;9.180;2022-08-19T07:28:37;5.60;;;5.20;;
3975;SDS011;2002;48.812;9.180;2022-08-19T07:31:04;5.20;;;4.80;;
3975;SDS011;2002;48.812;9.180;2022-08-19T07:33:31;5.50;;;5.10;;
3975;SDS011;2002;48.812;9.180;2022-08-19T07:35:57;6.47;;;5.90;;
3975;SDS011;2002;48.812;9.180;2022-08-19T07:38:23;5.30;;;4.90;;
3975;SDS011;2002;48.812;9.180;2022-08-19T07:40:49;5.60;;;5.20;;
3975;SDS011;2002;48.812;9.180;2022-08-19T07:43:16;4.90;;;4.50;;
3975;SDS011;2002;48.812;9.180;2022-08-19T07:45:45;5.70;;;5.20;;
3975;SDS011;2002;48.812;9.180;2022-08-19T07:48:12;6.20;;;5.70;;
3975;SDS011;2002;48.812;9.180;2022-08-19T07:50:37;6.03;;;5.40;;
3975;SDS011;2002;48.812;9.180;2022-08-19T07:53:03;5.47;;;4.97;;
3975;SDS011;2002;48.812;9.180;2022-08-19T07:55:29;5.70;;;5.30;;
3975;SDS011;2002;48.812;9.180;2022-08-19T07:57:55;5.10;;;4.70;;
3975;SDS011;2002;48.812;9.180;2022-08-19T08:00:21;5.90;;;5.40;;
3975;SDS011;2002;48.812;9.180;2022-08-19T08:02:46;5.57;;;5.10;;
3975;SDS011;2002;48.812;9.180;2022-08-19T08:05:12;5.80;;;5.33;;
3975;SDS011;2002;48.812;9.180;2022-08-19T08:07:56;5.93;;;5.43;;
3975;SDS011;2002;48.812;9.180;2022-08-19T08:10:40;5.70;;;5.30;;
3975;SDS011;2002;48.812;9.180;2022-08-19T08:13:06;5.70;;;5.30;;
3975;SDS011;2002;48.812;9.180;2022-08-19T08:15:32;6.10;;;5.60;;
3975;SDS011;2002;48.812;9.180;2022-08-19T08:17:57;5.60;;;5.20;;
3975;SDS011;2002;48.812;9.180;2022-08-19T08:20:23;5.63;;;5.20;;
3975;SDS011;2002;48.812;9.180;2022-08-19T08:22:49;6.07;;;5.57;;
3975;SDS011;2002;48.812;9.180;2022-08-19T08:25:33;6.23;;;5.73;;
3975;SDS011;2002;48.812;9.180;2022-08-19T08:28:00;5.90;;;5.40;;
3975;SDS011;2002;48.812;9.180;2022-08-19T08:30:27;5.50;;;5.10;;
3975;SDS011;2002;48.812;9.180;2022-08-19T08:32:53;6.23;;;5.73;;
3975;SDS011;2002;48.812;9.180;2022-08-19T08:35:21;5.83;;;5.43;;
3975;SDS011;2002;48.812;9.180;2022-08-19T08:37:48;6.07;;;5.57;;
3975;SDS011;2002;48.812;9.180;2022-08-19T08:40:20;6.50;;;6.00;;
3975;SDS011;2002;48.812;9.180;2022-08-19T08:43:09;5.90;;;5.40;;
3975;SDS011;2002;48.812;9.180;2022-08-19T08:48:41;5.97;;;5.57;;
3975;SDS011;2002;48.812;9.180;2022-08-19T08:51:14;6.30;;;5.80;;
3975;SDS011;2002;48.812;9.180;2022-08-19T08:53:54;5.87;;;5.37;;
3975;SDS011;2002;48.812;9.180;2022-08-19T08:56:21;6.87;;;6.27;;
3975;SDS011;2002;48.812;9.180;2022-08-19T09:01:28;5.50;;;5.10;;
3975;SDS011;2002;48.812;9.180;2022-08-19T09:03:54;5.53;;;5.03;;
3975;SDS011;2002;48.812;9.180;2022-08-19T09:06:40;5.73;;;5.23;;
3975;SDS011;2002;48.812;9.180;2022-08-19T09:09:18;6.33;;;5.80;;
3975;SDS011;2002;48.812;9.180;2022-08-19T09:14:38;5.70;;;5.30;;
3975;SDS011;2002;48.812;9.180;2022-08-19T09:17:12;5.90;;;5.43;;
3975;SDS011;2002;48.812;9.180;2022-08-19T09:19:52;6.43;;;5.93;;
3975;SDS011;2002;48.812;9.180;2022-08-19T09:22:20;6.30;;;5.80;;
3975;SDS011;2002;48.812;9.180;2022-08-19T09:24:48;5.67;;;5.27;;
3975;SDS011;2002;48.812;9.180;2022-08-19T09:27:15;6.13;;;5.63;;
3975;SDS011;2002;48.812;9.180;2022-08-19T09:29:41;5.77;;;5.27;;
3975;SDS011;2002;48.812;9.180;2022-08-19T09:32:06;5.90;;;5.40;;
3975;SDS011;2002;48.812;9.180;2022-08-19T09:34:32;6.67;;;6.17;;
3975;SDS011;2002;48.812;9.180;2022-08-19T09:36:58;6.40;;;5.83;;
3975;SDS011;2002;48.812;9.180;2022-08-19T09:39:24;5.53;;;5.13;;
3975;SDS011;2002;48.812;9.180;2022-08-19T09:41:50;6.43;;;5.93;;
3975;SDS011;2002;48.812;9.180;2022-08-19T09:44:17;5.50;;;5.10;;
3975;SDS011;2002;48.812;9.180;2022-08-19T09:46:45;6.40;;;5.80;;
3975;SDS011;2002;48.812;9.180;2022-08-19T09:49:11;6.87;;;6.27;;
3975;SDS011;2002;48.812;9.180;2022-08-19T09:51:37;5.50;;;5.10;;
3975;SDS011;2002;48.812;9.180;2022-08-19T09:54:03;5.70;;;5.27;;
3975;SDS011;2002;48.812;9.180;2022-08-19T09:56:29;5.67;;;5.17;;
3975;SDS011;2002;48.812;9.180;2022-08-19T09:58:57;7.00;;;6.50;;
3975;SDS011;2002;48.812;9.180;2022-08-19T10:01:25;5.87;;;5.40;;
3975;SDS011;2002;48.812;9.180;2022-08-19T10:03:54;6.10;;;5.60;;
3975;SDS011;2002;48.812;9.180;2022-08-19T10:06:22;5.73;;;5.30;;
3975;SDS011;2002;48.812;9.180;2022-08-19T10:08:49;6.67;;;6.07;;
3975;SDS011;2002;48.812;9.180;2022-08-19T10:11:16;5.60;;;5.10;;
3975;SDS011;2002;48.812;9.180;2022-08-19T10:13:43;6.23;;;5.73;;
3975;SDS011;2002;48.812;9.180;2022-08-19T10:16:14;6.13;;;5.63;;
3975;SDS011;2002;48.812;9.180;2022-08-19T10:18:43;6.00;;;5.50;;
3975;SDS011;2002;48.812;9.180;2022-08-19T10:21:17;6.07;;;5.63;;
3975;SDS011;2002;48.812;9.180;2022-08-19T10:23:48;6.83;;;6.30;;
3975;SDS011;2002;48.812;9.180;2022-08-19T10:26:17;5.33;;;4.93;;
3975;SDS011;2002;48.812;9.180;2022-08-19T10:28:54;5.97;;;5.47;;
3975;SDS011;2002;48.812;9.180;2022-08-19T10:31:22;6.83;;;6.23;;
3975;SDS011;2002;48.812;9.180;2022-08-19T10:33:52;6.20;;;5.70;;
3975;SDS011;2002;48.812;9.180;2022-08-19T10:36:22;6.20;;;5.70;;
3975;SDS011;2002;48.812;9.180;2022-08-19T10:38:50;6.87;;;6.27;;
3975;SDS011;2002;48.812;9.180;2022-08-19T10:41:18;6.03;;;5.60;;
3975;SDS011;2002;48.812;9.180;2022-08-19T10:43:52;6.00;;;5.47;;
3975;SDS011;2002;48.812;9.180;2022-08-19T10:46:19;6.90;;;6.30;;
3975;SDS011;2002;48.812;9.180;2022-08-19T10:48:47;5.90;;;5.40;;
3975;SDS011;2002;48.812;9.180;2022-08-19T10:51:13;6.87;;;6.30;;
3975;SDS011;2002;48.812;9.180;2022-08-19T10:53:58;5.90;;;5.40;;
3975;SDS011;2002;48.812;9.180;2022-08-19T10:56:25;6.60;;;6.10;;
3975;SDS011;2002;48.812;9.180;2022-08-19T10:59:10;5.60;;;5.17;;
3975;SDS011;2002;48.812;9.180;2022-08-19T11:01:38;5.70;;;5.30;;
3975;SDS011;2002;48.812;9.180;2022-08-19T11:04:04;5.97;;;5.50;;
3975;SDS011;2002;48.812;9.180;2022-08-19T11:06:33;6.77;;;6.27;;
3975;SDS011;2002;48.812;9.180;2022-08-19T11:08:59;6.50;;;6.00;;
3975;SDS011;2002;48.812;9.180;2022-08-19T11:11:25;5.50;;;5.10;;
3975;SDS011;2002;48.812;9.180;2022-08-19T11:13:51;6.00;;;5.50;;
3975;SDS011;2002;48.812;9.180;2022-08-19T11:16:19;5.77;;;5.27;;
3975;SDS011;2002;48.812;9.180;2022-08-19T11:18:51;5.90;;;5.40;;
3975;SDS011;2002;48.812;9.180;2022-08-19T11:21:26;6.70;;;6.17;;
3975;SDS011;2002;48.812;9.180;2022-08-19T11:23:56;5.80;;;5.37;;
3975;SDS011;2002;48.812;9.180;2022-08-19T11:26:24;5.53;;;5.10;;
3975;SDS011;2002;48.812;9.180;2022-08-19T11:28:50;7.30;;;6.70;;
3975;SDS011;2002;48.812;9.180;2022-08-19T11:31:20;6.00;;;5.50;;
3975;SDS011;2002;48.812;9.180;2022-08-19T11:33:48;6.30;;;5.80;;
3975;SDS011;2002;48.812;9.180;2022-08-19T11:36:20;6.97;;;6.37;;
3975;SDS011;2002;48.812;9.180;2022-08-19T11:38:47;6.80;;;6.23;;
3975;SDS011;2002;48.812;9.180;2022-08-19T11:41:14;6.17;;;5.67;;
3975;SDS011;2002;48.812;9.180;2022-08-19T11:43:41;6.47;;;5.90;;
3975;SDS011;2002;48.812;9.180;2022-08-19T11:46:07;5.90;;;5.30;;
3975;SDS011;2002;48.812;9.180;2022-08-19T11:48:35;6.37;;;5.80;;
3975;SDS011;2002;48.812;9.180;2022-08-19T11:51:09;6.27;;;5.77;;
3975;SDS011;2002;48.812;9.180;2022-08-19T11:53:40;5.93;;;5.40;;
3975;SDS011;2002;48.812;9.180;2022-08-19T11:56:07;6.10;;;5.60;;
3975;SDS011;2002;48.812;9.180;2022-08-19T11:58:34;5.57;;;5.17;;
3975;SDS011;2002;48.812;9.180;2022-08-19T12:01:00;5.50;;;5.10;;
3975;SDS011;2002;48.812;9.180;2022-08-19T12:03:26;6.40;;;6.00;;
3975;SDS011;2002;48.812;9.180;2022-08-19T12:05:52;6.60;;;6.10;;
3975;SDS011;2002;48.812;9.180;2022-08-19T12:08:18;5.67;;;5.27;;
3975;SDS011;2002;48.812;9.180;2022-08-19T12:10:44;6.33;;;5.83;;
3975;SDS011;2002;48.812;9.180;2022-08-19T12:13:10;6.47;;;5.90;;
3975;SDS011;2002;48.812;9.180;2022-08-19T12:15:40;6.17;;;5.70;;
3975;SDS011;2002;48.812;9.180;2022-08-19T12:18:07;6.03;;;5.53;;
3975;SDS011;2002;48.812;9.180;2022-08-19T12:20:37;5.70;;;5.20;;
3975;SDS011;2002;48.812;9.180;2022-08-19T12:23:04;6.20;;;5.70;;
3975;SDS011;2002;48.812;9.180;2022-08-19T12:25:31;5.73;;;5.33;;
3975;SDS011;2002;48.812;9.180;2022-08-19T12:27:57;6.20;;;5.70;;
3975;SDS011;2002;48.812;9.180;2022-08-19T12:30:23;6.30;;;5.80;;
3975;SDS011;2002;48.812;9.180;2022-08-19T12:32:50;6.33;;;5.77;;
3975;SDS011;2002;48.812;9.180;2022-08-19T12:35:16;5.87;;;5.43;;
3975;SDS011;2002;48.812;9.180;2022-08-19T12:37:44;5.33;;;4.93;;
3975;SDS011;2002;48.812;9.180;2022-08-19T12:40:11;5.87;;;5.37;;
3975;SDS011;2002;48.812;9.180;2022-08-19T12:42:38;6.00;;;5.50;;
3975;SDS011;2002;48.812;9.180;2022-08-19T12:45:07;6.30;;;5.80;;
3975;SDS011;2002;48.812;9.180;2022-08-19T12:47:34;6.23;;;5.73;;
3975;SDS011;2002;48.812;9.180;2022-08-19T12:50:00;6.30;;;5.80;;
3975;SDS011;2002;48.812;9.180;2022-08-19T12:52:26;6.23;;;5.63;;
3975;SDS011;2002;48.812;9.180;2022-08-19T12:54:53;6.23;;;5.73;;
3975;SDS011;2002;48.812;9.180;2022-08-19T12:57:21;5.63;;;5.23;;
3975;SDS011;2002;48.812;9.180;2022-08-19T12:59:51;4.93;;;4.53;;
3975;SDS011;2002;48.812;9.180;2022-08-19T13:02:18;6.37;;;5.87;;
3975;SDS011;2002;48.812;9.180;2022-08-19T13:04:44;6.87;;;6.23;;
3975;SDS011;2002;48.812;9.180;2022-08-19T13:07:10;5.20;;;4.80;;
3975;SDS011;2002;48.812;9.180;2022-08-19T13:09:35;5.83;;;5.33;;
3975;SDS011;2002;48.812;9.180;2022-08-19T13:12:01;6.07;;;5.60;;
3975;SDS011;2002;48.812;9.180;2022-08-19T13:14:28;6.10;;;5.60;;
3975;SDS011;2002;48.812;9.180;2022-08-19T13:16:56;6.70;;;6.10;;
3975;SDS011;2002;48.812;9.180;2022-08-19T13:19:22;5.83;;;5.40;;
3975;SDS011;2002;48.812;9.180;2022-08-19T13:21:49;6.00;;;5.50;;
3975;SDS011;2002;48.812;9.180;2022-08-19T13:24:16;5.57;;;5.17;;
3975;SDS011;2002;48.812;9.180;2022-08-19T13:26:42;6.03;;;5.53;;
3975;SDS011;2002;48.812;9.180;2022-08-19T13:29:07;6.23;;;5.73;;
3975;SDS011;2002;48.812;9.180;2022-08-19T13:31:51;6.63;;;6.13;;
3975;SDS011;2002;48.812;9.180;2022-08-19T13:34:35;6.20;;;5.60;;
3975;SDS011;2002;48.812;9.180;2022-08-19T13:37:02;6.20;;;5.70;;
3975;SDS011;2002;48.812;9.180;2022-08-19T13:39:29;6.07;;;5.67;;
3975;SDS011;2002;48.812;9.180;2022-08-19T13:41:57;6.10;;;5.67;;
3975;SDS011;2002;48.812;9.180;2022-08-19T13:44:24;6.60;;;6.10;;
3975;SDS011;2002;48.812;9.180;2022-08-19T13:46:50;5.63;;;5.23;;
3975;SDS011;2002;48.812;9.180;2022-08-19T13:49:18;5.13;;;4.73;;
3975;SDS011;2002;48.812;9.180;2022-08-19T13:51:45;5.60;;;5.10;;
3975;SDS011;2002;48.812;9.180;2022-08-19T13:54:11;5.80;;;5.40;;
3975;SDS011;2002;48.812;9.180;2022-08-19T13:56:43;5.60;;;5.20;;
3975;SDS011;2002;48.812;9.180;2022-08-19T13:59:09;5.17;;;4.77;;
3975;SDS011;2002;48.812;9.180;2022-08-19T14:01:36;6.03;;;5.53;;
3975;SDS011;2002;48.812;9.180;2022-08-19T14:04:02;5.90;;;5.40;;
3975;SDS011;2002;48.812;9.180;2022-08-19T14:06:28;5.73;;;5.30;;
3975;SDS011;2002;48.812;9.180;2022-08-19T14:08:54;5.70;;;5.30;;
3975;SDS011;2002;48.812;9.180;2022-08-19T14:11:19;7.00;;;6.40;;
3975;SDS011;2002;48.812;9.180;2022-08-19T14:13:45;5.97;;;5.53;;
3975;SDS011;2002;48.812;9.180;2022-08-19T14:16:11;5.60;;;5.17;;
3975;SDS011;2002;48.812;9.180;2022-08-19T14:18:38;6.23;;;5.73;;
3975;SDS011;2002;48.812;9.180;2022-08-19T14:21:05;6.13;;;5.63;;
3975;SDS011;2002;48.812;9.180;2022-08-19T14:23:31;5.10;;;4.70;;
3975;SDS011;2002;48.812;9.180;2022-08-19T14:26:08;5.60;;;5.20;;
3975;SDS011;2002;48.812;9.180;2022-08-19T14:28:36;5.90;;;5.40;;
3975;SDS011;2002;48.812;9.180;2022-08-19T14:31:02;6.13;;;5.63;;
3975;SDS011;2002;48.812;9.180;2022-08-19T14:33:27;5.33;;;4.93;;
3975;SDS011;2002;48.812;9.180;2022-08-19T14:35:53;6.37;;;5.90;;
3975;SDS011;2002;48.812;9.180;2022-08-19T14:38:18;5.20;;;4.80;;
3975;SDS011;2002;48.812;9.180;2022-08-19T14:40:44;5.10;;;4.70;;
3975;SDS011;2002;48.812;9.180;2022-08-19T14:43:10;5.37;;;4.93;;
3975;SDS011;2002;48.812;9.180;2022-08-19T14:45:37;5.87;;;5.40;;
3975;SDS011;2002;48.812;9.180;2022-08-19T14:48:04;5.87;;;5.27;;
3975;SDS011;2002;48.812;9.180;2022-08-19T14:50:31;5.83;;;5.33;;
3975;SDS011;2002;48.812;9.180;2022-08-19T14:52:58;6.10;;;5.60;;
3975;SDS011;2002;48.812;9.180;2022-08-19T14:55:30;5.23;;;4.83;;
3975;SDS011;2002;48.812;9.180;2022-08-19T14:57:56;5.37;;;4.97;;
3975;SDS011;2002;48.812;9.180;2022-08-19T15:00:22;6.07;;;5.47;;
3975;SDS011;2002;48.812;9.180;2022-08-19T15:02:48;6.10;;;5.57;;
3975;SDS011;2002;48.812;9.180;2022-08-19T15:05:15;5.23;;;4.83;;
3975;SDS011;2002;48.812;9.180;2022-08-19T15:07:41;5.47;;;5.07;;
3975;SDS011;2002;48.812;9.180;2022-08-19T15:10:08;6.10;;;5.60;;
3975;SDS011;2002;48.812;9.180;2022-08-19T15:12:35;5.70;;;5.20;;
3975;SDS011;2002;48.812;9.180;2022-08-19T15:15:05;5.27;;;4.87;;
3975;SDS011;2002;48.812;9.180;2022-08-19T15:17:37;6.10;;;5.60;;
3975;SDS011;2002;48.812;9.180;2022-08-19T15:20:05;5.60;;;5.20;;
3975;SDS011;2002;48.812;9.180;2022-08-19T15:22:31;5.97;;;5.43;;
3975;SDS011;2002;48.812;9.180;2022-08-19T15:24:57;5.63;;;5.23;;
3975;SDS011;2002;48.812;9.180;2022-08-19T15:27:23;5.63;;;5.20;;
3975;SDS011;2002;48.812;9.180;2022-08-19T15:29:49;5.23;;;4.83;;
3975;SDS011;2002;48.812;9.180;2022-08-19T15:32:14;5.20;;;4.77;;
3975;SDS011;2002;48.812;9.180;2022-08-19T15:34:40;5.30;;;4.90;;
3975;SDS011;2002;48.812;9.180;2022-08-19T15:37:05;5.63;;;5.20;;
3975;SDS011;2002;48.812;9.180;2022-08-19T15:39:32;5.27;;;4.87;;